Time;durP1;ratioP1;P1;durP2;ratioP2;P2;SDS_P1;SDS_P2;PMS_P1;PMS_P2;Temp;Humidity;BMP_temperature;BMP_pressure;BME280_temperature;BME280_humidity;BME280_pressure;Samples;Min_cycle;Max_cycle;Signal;HPM_P1;HPM_P2
2023/06/12 00:02:13;;;;;;;5.85;3.17;;;21.90;99.90;;;;;;4943269;28;20063;-34
2023/06/12 00:04:39;;;;;;;5.20;3.38;;;21.90;99.90;;;;;;4940424;28;20044;-34
2023/06/12 00:07:05;;;;;;;5.03;2.72;;;21.80;99.90;;;;;;4935123;29;20051;-34
2023/06/12 00:09:33;;;;;;;4.63;2.80;;;21.80;99.90;;;;;;4942788;28;20180;-34
2023/06/12 00:11:58;;;;;;;6.63;2.97;;;21.70;99.90;;;;;;4949665;28;20066;-34
2023/06/12 00:14:24;;;;;;;4.68;3.35;;;21.60;99.90;;;;;;4953778;28;20055;-35
2023/06/12 00:16:50;;;;;;;5.00;3.35;;;21.60;99.90;;;;;;4945607;28;20043;-35
2023/06/12 00:19:15;;;;;;;6.32;3.30;;;21.50;99.90;;;;;;4951709;28;20398;-35
2023/06/12 00:21:41;;;;;;;4.75;2.88;;;21.50;99.90;;;;;;4947801;28;20058;-35
2023/06/12 00:24:08;;;;;;;6.07;3.15;;;21.40;99.90;;;;;;4947001;28;20142;-35
2023/06/12 00:26:35;;;;;;;5.93;3.38;;;21.40;99.90;;;;;;4947404;28;20059;-35
2023/06/12 00:29:01;;;;;;;4.35;2.60;;;21.40;99.90;;;;;;4950269;28;20051;-35
2023/06/12 00:31:26;;;;;;;4.47;2.88;;;21.40;99.90;;;;;;4949240;28;20421;-35
2023/06/12 00:33:52;;;;;;;5.25;3.00;;;21.30;99.90;;;;;;4945560;28;20086;-35
2023/06/12 00:36:18;;;;;;;5.38;2.97;;;21.30;99.90;;;;;;4950898;28;20059;-35
2023/06/12 00:38:43;;;;;;;5.00;3.25;;;21.20;99.90;;;;;;4953682;28;20509;-35
2023/06/12 00:41:09;;;;;;;6.35;3.22;;;21.20;99.90;;;;;;4952407;28;20070;-35
2023/06/12 00:43:35;;;;;;;5.35;2.88;;;21.20;99.90;;;;;;4935726;28;20086;-35
2023/06/12 00:46:01;;;;;;;5.45;3.10;;;21.10;99.90;;;;;;4945342;28;20051;-35
2023/06/12 00:48:27;;;;;;;5.35;3.20;;;21.00;99.90;;;;;;4951473;28;20070;-35
2023/06/12 00:50:56;;;;;;;3.78;2.60;;;21.00;99.90;;;;;;4952972;28;20175;-35
2023/06/12 00:53:21;;;;;;;3.53;2.55;;;20.90;99.90;;;;;;4948135;28;20497;-34
2023/06/12 00:55:47;;;;;;;5.68;3.10;;;20.90;99.90;;;;;;4947504;28;20111;-35
2023/06/12 00:58:13;;;;;;;7.25;3.35;;;20.90;99.90;;;;;;4951186;28;20066;-35
2023/06/12 01:00:39;;;;;;;5.60;3.03;;;20.90;99.90;;;;;;4937191;28;20524;-35
2023/06/12 01:03:10;;;;;;;4.47;2.80;;;20.80;99.90;;;;;;4946053;28;20155;-35
2023/06/12 01:05:42;;;;;;;6.22;2.80;;;20.80;99.90;;;;;;4952003;28;20492;-35
2023/06/12 01:08:20;;;;;;;4.10;2.60;;;20.80;99.90;;;;;;4947567;28;20138;-35
2023/06/12 01:10:53;;;;;;;4.20;2.63;;;20.70;99.90;;;;;;4944514;28;20051;-34
2023/06/12 01:13:20;;;;;;;5.80;2.40;;;20.70;99.90;;;;;;4945586;28;20548;-35
2023/06/12 01:15:46;;;;;;;5.53;2.67;;;20.70;99.90;;;;;;4948172;28;20075;-35
2023/06/12 01:18:12;;;;;;;5.82;2.30;;;20.70;99.90;;;;;;4952715;28;20078;-35
2023/06/12 01:20:40;;;;;;;4.35;2.70;;;20.70;99.90;;;;;;4952985;28;20042;-34
2023/06/12 01:23:37;;;;;;;3.30;2.40;;;20.60;99.90;;;;;;4934499;28;20051;-34
2023/06/12 01:26:17;;;;;;;4.90;2.38;;;20.60;99.90;;;;;;4945146;28;20102;-34
2023/06/12 01:29:23;;;;;;;5.13;2.33;;;20.50;99.90;;;;;;4953297;28;20055;-34
2023/06/12 01:32:01;;;;;;;3.50;2.30;;;20.50;99.90;;;;;;4943624;28;20608;-34
2023/06/12 01:34:32;;;;;;;5.53;2.53;;;20.40;99.90;;;;;;4941028;28;20142;-34
2023/06/12 01:37:13;;;;;;;5.13;2.05;;;20.30;99.90;;;;;;4952306;28;20494;-34
2023/06/12 01:39:42;;;;;;;5.20;2.42;;;20.30;99.90;;;;;;4941577;28;20051;-34
2023/06/12 01:42:09;;;;;;;4.35;2.17;;;20.30;99.90;;;;;;4945936;28;20055;-34
2023/06/12 01:44:35;;;;;;;5.30;2.40;;;20.30;99.90;;;;;;4946181;28;20051;-34
2023/06/12 01:47:01;;;;;;;6.25;2.30;;;20.20;99.90;;;;;;4945447;28;20059;-34
2023/06/12 01:49:27;;;;;;;4.25;2.17;;;20.20;99.90;;;;;;4929298;28;20547;-35
2023/06/12 01:51:52;;;;;;;3.05;2.08;;;20.10;99.90;;;;;;4946314;28;20059;-35
2023/06/12 01:54:21;;;;;;;5.35;2.08;;;20.10;99.90;;;;;;4946733;28;20134;-35
2023/06/12 01:56:46;;;;;;;4.60;2.10;;;20.00;99.90;;;;;;4946871;28;22339;-35
2023/06/12 01:59:12;;;;;;;3.80;2.42;;;20.00;99.90;;;;;;4945924;28;20137;-34
2023/06/12 02:01:38;;;;;;;4.10;2.00;;;19.90;99.90;;;;;;4943880;28;20110;-35
2023/06/12 02:04:04;;;;;;;5.25;2.10;;;19.90;99.90;;;;;;4945971;28;20113;-35
2023/06/12 02:06:30;;;;;;;5.55;2.15;;;19.90;99.90;;;;;;4950230;28;20062;-35
2023/06/12 02:08:56;;;;;;;5.63;1.90;;;19.80;99.90;;;;;;4947567;28;20417;-35
2023/06/12 02:11:22;;;;;;;4.03;2.05;;;19.80;99.90;;;;;;4945665;28;20047;-34
2023/06/12 02:13:47;;;;;;;4.03;2.00;;;19.80;99.90;;;;;;4943840;28;20055;-35
2023/06/12 02:16:21;;;;;;;5.38;2.08;;;19.70;99.90;;;;;;4945444;28;20438;-35
2023/06/12 02:18:47;;;;;;;3.97;1.67;;;19.70;99.90;;;;;;4955008;28;20495;-35
2023/06/12 02:21:13;;;;;;;4.43;2.17;;;19.60;99.90;;;;;;4945242;28;20102;-35
2023/06/12 02:23:38;;;;;;;5.25;1.85;;;19.60;99.90;;;;;;4944459;28;20054;-35
2023/06/12 02:26:04;;;;;;;6.80;2.47;;;19.50;99.90;;;;;;4928943;28;20094;-35
2023/06/12 02:28:30;;;;;;;7.30;2.22;;;19.50;99.90;;;;;;4945063;28;20060;-35
2023/06/12 02:30:56;;;;;;;3.67;1.83;;;19.50;99.90;;;;;;4941950;28;20051;-35
2023/06/12 02:33:22;;;;;;;3.58;2.08;;;19.50;99.90;;;;;;4943380;28;20062;-35
2023/06/12 02:35:47;;;;;;;4.63;1.90;;;19.50;99.90;;;;;;4946043;28;20047;-35
2023/06/12 02:38:13;;;;;;;6.00;2.88;;;19.40;99.90;;;;;;4941401;28;20405;-35
2023/06/12 02:40:39;;;;;;;2.85;1.80;;;19.40;99.90;;;;;;4943297;28;20399;-35
2023/06/12 02:43:04;;;;;;;3.65;1.67;;;19.40;99.90;;;;;;4944960;28;20063;-37
2023/06/12 02:45:30;;;;;;;2.85;1.90;;;19.30;99.90;;;;;;4927893;28;20489;-35
2023/06/12 02:47:56;;;;;;;3.53;1.70;;;19.30;99.90;;;;;;4945552;28;20493;-35
2023/06/12 02:50:21;;;;;;;4.65;2.13;;;19.20;99.90;;;;;;4944266;28;20074;-35
2023/06/12 02:52:48;;;;;;;8.95;1.85;;;19.20;99.90;;;;;;4941583;28;20047;-36
2023/06/12 02:55:14;;;;;;;3.58;2.15;;;19.10;99.90;;;;;;4941707;28;20622;-35
2023/06/12 02:57:39;;;;;;;5.68;1.90;;;19.10;99.90;;;;;;4942724;28;20047;-35
2023/06/12 03:00:06;;;;;;;4.55;1.73;;;19.00;99.90;;;;;;4945220;28;20456;-36
2023/06/12 03:02:31;;;;;;;3.55;1.98;;;19.00;99.90;;;;;;4945915;28;20527;-35
2023/06/12 03:04:59;;;;;;;6.78;2.42;;;19.00;99.90;;;;;;4943746;28;20055;-35
2023/06/12 03:07:27;;;;;;;4.97;2.00;;;19.00;99.90;;;;;;4943160;28;20679;-35
2023/06/12 03:09:52;;;;;;;3.25;1.73;;;18.90;99.90;;;;;;4940855;28;20047;-36
2023/06/12 03:12:18;;;;;;;4.57;2.30;;;18.90;99.90;;;;;;4935649;28;20058;-35
2023/06/12 03:14:44;;;;;;;5.22;2.00;;;18.80;99.90;;;;;;4938709;28;20059;-35
2023/06/12 03:17:10;;;;;;;6.32;2.15;;;18.80;99.90;;;;;;4942309;28;20118;-35
2023/06/12 03:19:35;;;;;;;3.17;1.70;;;18.80;99.90;;;;;;4948178;28;20060;-35
2023/06/12 03:22:01;;;;;;;4.18;1.90;;;18.70;99.90;;;;;;4946731;28;20043;-35
2023/06/12 03:24:29;;;;;;;10.48;2.30;;;18.70;99.90;;;;;;4939771;28;20150;-35
2023/06/12 03:26:55;;;;;;;4.80;1.85;;;18.70;99.90;;;;;;4939515;28;20035;-35
2023/06/12 03:29:20;;;;;;;4.45;1.75;;;18.70;99.90;;;;;;4944298;28;20633;-35
2023/06/12 03:31:46;;;;;;;6.82;1.80;;;18.60;99.90;;;;;;4944225;28;20082;-35
2023/06/12 03:34:11;;;;;;;4.25;1.70;;;18.60;99.90;;;;;;4925883;28;20059;-35
2023/06/12 03:36:38;;;;;;;4.13;1.85;;;18.60;99.90;;;;;;4946370;28;20062;-35
2023/06/12 03:39:04;;;;;;;5.97;1.40;;;18.60;99.90;;;;;;4922416;28;20090;-35
2023/06/12 03:41:32;;;;;;;2.95;1.55;;;18.60;99.90;;;;;;4947067;28;20079;-35
2023/06/12 03:43:58;;;;;;;6.20;1.83;;;18.60;99.90;;;;;;4943100;28;20621;-35
2023/06/12 03:46:23;;;;;;;5.70;2.00;;;18.60;99.90;;;;;;4951145;28;20488;-35
2023/06/12 03:48:49;;;;;;;4.00;1.63;;;18.60;99.90;;;;;;4940372;28;20058;-35
2023/06/12 03:51:15;;;;;;;4.35;1.63;;;18.60;99.90;;;;;;4948364;28;20053;-35
2023/06/12 03:53:41;;;;;;;6.45;2.13;;;18.60;99.90;;;;;;4939488;28;20520;-35
2023/06/12 03:56:07;;;;;;;5.18;1.50;;;18.60;99.90;;;;;;4946221;28;20102;-35
2023/06/12 03:58:33;;;;;;;4.97;1.90;;;18.50;99.90;;;;;;4928166;28;20055;-35
2023/06/12 04:00:58;;;;;;;4.00;1.77;;;18.50;99.90;;;;;;4947643;28;20524;-36
2023/06/12 04:03:25;;;;;;;5.35;1.73;;;18.50;99.90;;;;;;4919789;28;20074;-35
2023/06/12 04:05:51;;;;;;;3.15;1.50;;;18.50;99.90;;;;;;4925032;28;20469;-36
2023/06/12 04:08:17;;;;;;;3.80;1.52;;;18.50;99.90;;;;;;4946875;28;20077;-35
2023/06/12 04:10:44;;;;;;;4.38;1.40;;;18.50;99.90;;;;;;4941955;28;20064;-35
2023/06/12 04:13:11;;;;;;;5.28;1.63;;;18.50;99.90;;;;;;4944809;28;20133;-35
2023/06/12 04:15:38;;;;;;;2.90;1.52;;;18.50;99.90;;;;;;4945943;28;20047;-35
2023/06/12 04:18:05;;;;;;;6.28;1.50;;;18.40;99.90;;;;;;4936191;28;20409;-35
2023/06/12 04:20:32;;;;;;;2.95;1.38;;;18.40;99.90;;;;;;4946110;28;20480;-36
2023/06/12 04:22:58;;;;;;;3.47;1.63;;;18.40;99.90;;;;;;4943123;28;20071;-35
2023/06/12 04:25:25;;;;;;;6.28;1.60;;;18.40;99.90;;;;;;4943566;28;20051;-35
2023/06/12 04:27:51;;;;;;;9.68;1.88;;;18.50;99.90;;;;;;4939713;28;20059;-35
2023/06/12 04:30:21;;;;;;;3.17;1.65;;;18.50;99.90;;;;;;4941317;28;20055;-35
2023/06/12 04:32:47;;;;;;;4.50;1.63;;;18.50;99.90;;;;;;4929309;28;20055;-35
2023/06/12 04:35:13;;;;;;;4.53;1.63;;;18.50;99.90;;;;;;4942919;28;20047;-35
2023/06/12 04:37:38;;;;;;;4.03;1.83;;;18.50;99.90;;;;;;4944814;28;20114;-35
2023/06/12 04:40:04;;;;;;;3.05;1.70;;;18.50;99.90;;;;;;4942970;28;20055;-35
2023/06/12 04:42:31;;;;;;;4.00;1.45;;;18.60;99.90;;;;;;4942461;28;20545;-35
2023/06/12 04:44:58;;;;;;;2.60;1.23;;;18.60;99.90;;;;;;4939982;28;20082;-35
2023/06/12 04:47:24;;;;;;;6.80;1.55;;;18.60;99.90;;;;;;4941964;28;20047;-35
2023/06/12 04:49:52;;;;;;;6.05;1.77;;;18.70;99.90;;;;;;4942650;28;20505;-35
2023/06/12 04:52:19;;;;;;;4.07;1.98;;;18.70;99.90;;;;;;4943632;28;20052;-36
2023/06/12 04:54:45;;;;;;;9.75;1.90;;;18.70;99.90;;;;;;4943079;28;20055;-35
2023/06/12 04:57:16;;;;;;;5.50;1.67;;;18.70;99.90;;;;;;4946100;28;20431;-35
2023/06/12 04:59:45;;;;;;;3.08;1.70;;;18.70;99.90;;;;;;4948918;28;20051;-35
2023/06/12 05:02:12;;;;;;;5.55;2.03;;;18.80;99.90;;;;;;4942924;28;20079;-35
2023/06/12 05:04:38;;;;;;;5.10;2.00;;;18.90;99.90;;;;;;4928677;29;20565;-35
2023/06/12 05:07:16;;;;;;;8.30;1.98;;;18.90;99.90;;;;;;4931041;29;20461;-35
2023/06/12 05:09:45;;;;;;;5.05;1.55;;;19.00;99.90;;;;;;4924906;29;20120;-35
2023/06/12 05:12:12;;;;;;;5.03;1.50;;;19.00;99.90;;;;;;4924585;29;20056;-35
2023/06/12 05:14:39;;;;;;;3.70;1.80;;;19.10;99.90;;;;;;4931726;28;20568;-35
2023/06/12 05:17:05;;;;;;;3.38;1.77;;;19.20;99.90;;;;;;4923744;29;20127;-35
2023/06/12 05:19:31;;;;;;;5.03;1.80;;;19.20;99.90;;;;;;4927794;29;20463;-35
2023/06/12 05:21:57;;;;;;;6.40;1.95;;;19.30;99.90;;;;;;4928621;28;20063;-35
2023/06/12 05:24:22;;;;;;;6.45;2.10;;;19.40;99.90;;;;;;4926176;28;20056;-35
2023/06/12 05:26:48;;;;;;;3.90;1.80;;;19.40;99.90;;;;;;4924234;28;20059;-35
2023/06/12 05:29:14;;;;;;;5.85;2.05;;;19.50;99.90;;;;;;4921854;29;20534;-36
2023/06/12 05:31:39;;;;;;;4.43;1.83;;;19.60;99.90;;;;;;4905353;29;20057;-35
2023/06/12 05:34:05;;;;;;;3.05;1.75;;;19.60;99.90;;;;;;4925199;28;20110;-35
2023/06/12 05:36:31;;;;;;;5.38;1.23;;;19.60;99.90;;;;;;4913709;28;20095;-35
2023/06/12 05:38:56;;;;;;;7.38;1.80;;;19.70;99.90;;;;;;4910549;29;20052;-35
2023/06/12 05:41:22;;;;;;;5.07;2.20;;;19.70;99.90;;;;;;4929627;28;20056;-35
2023/06/12 05:43:47;;;;;;;6.22;2.00;;;19.80;99.90;;;;;;4925355;28;20056;-35
2023/06/12 05:46:13;;;;;;;4.45;1.80;;;19.90;99.90;;;;;;4925120;29;20052;-35
2023/06/12 05:48:39;;;;;;;12.00;2.15;;;19.90;99.90;;;;;;4929729;29;20100;-35
2023/06/12 05:51:07;;;;;;;8.50;2.35;;;20.00;99.90;;;;;;4925664;28;20715;-35
2023/06/12 05:53:35;;;;;;;5.65;2.10;;;20.10;99.90;;;;;;4923715;29;20520;-35
2023/06/12 05:56:02;;;;;;;7.25;2.05;;;20.30;99.90;;;;;;4908302;29;20624;-35
2023/06/12 05:58:27;;;;;;;6.57;2.20;;;20.40;99.90;;;;;;4926935;29;20052;-35
2023/06/12 06:00:53;;;;;;;4.20;1.90;;;20.40;99.90;;;;;;4926220;28;20035;-35
2023/06/12 06:03:19;;;;;;;5.63;1.77;;;20.50;99.90;;;;;;4926711;28;20075;-35
2023/06/12 06:05:48;;;;;;;6.60;1.73;;;20.60;99.90;;;;;;4922022;28;20052;-35
2023/06/12 06:08:14;;;;;;;5.03;2.10;;;20.60;99.90;;;;;;4924872;29;20126;-35
2023/06/12 06:10:40;;;;;;;8.15;2.28;;;20.70;99.90;;;;;;4927901;29;20048;-35
2023/06/12 06:13:10;;;;;;;6.40;1.88;;;20.70;99.90;;;;;;4921120;29;20122;-35
2023/06/12 06:15:35;;;;;;;3.83;2.22;;;20.70;99.90;;;;;;4921571;28;20062;-35
2023/06/12 06:18:01;;;;;;;5.68;2.35;;;20.70;99.90;;;;;;4922314;28;20055;-35
2023/06/12 06:20:27;;;;;;;4.70;1.67;;;20.70;99.90;;;;;;4921811;29;20051;-35
2023/06/12 06:22:53;;;;;;;4.75;2.05;;;20.80;99.90;;;;;;4921471;29;20059;-35
2023/06/12 06:25:18;;;;;;;5.35;2.03;;;20.90;99.90;;;;;;4925674;29;20051;-35
2023/06/12 06:27:44;;;;;;;4.05;2.17;;;21.00;99.90;;;;;;4925216;28;20056;-34
2023/06/12 06:30:10;;;;;;;6.75;2.35;;;21.10;99.90;;;;;;4912051;28;20100;-35
2023/06/12 06:32:36;;;;;;;5.50;2.13;;;21.30;99.90;;;;;;4928120;28;20067;-35
2023/06/12 06:35:05;;;;;;;4.40;1.90;;;21.30;99.90;;;;;;4922486;28;20059;-35
2023/06/12 06:37:31;;;;;;;4.63;2.28;;;21.40;99.90;;;;;;4917812;29;20143;-34
2023/06/12 06:39:56;;;;;;;2.83;1.90;;;21.50;99.90;;;;;;4923092;28;20512;-35
2023/06/12 06:42:22;;;;;;;3.63;2.20;;;21.60;99.90;;;;;;4927362;29;20067;-35
2023/06/12 06:44:49;;;;;;;5.68;2.17;;;21.70;99.90;;;;;;4923065;28;20062;-35
2023/06/12 06:47:15;;;;;;;7.40;2.17;;;21.80;99.90;;;;;;4921557;29;20056;-34
2023/06/12 06:49:40;;;;;;;4.05;1.80;;;21.90;99.90;;;;;;4931407;29;20079;-34
2023/06/12 06:52:06;;;;;;;4.55;2.40;;;22.10;99.90;;;;;;4925781;28;20429;-35
2023/06/12 06:54:32;;;;;;;3.50;2.10;;;22.20;99.90;;;;;;4927885;29;20512;-35
2023/06/12 06:57:00;;;;;;;6.93;1.98;;;22.30;99.90;;;;;;4918573;28;20075;-35
2023/06/12 06:59:26;;;;;;;5.20;1.85;;;22.50;99.90;;;;;;4919585;29;20412;-35
2023/06/12 07:01:51;;;;;;;7.88;2.25;;;22.60;99.90;;;;;;4923395;28;20279;-35
2023/06/12 07:04:17;;;;;;;6.07;2.42;;;22.70;99.90;;;;;;4943006;28;20144;-35
2023/06/12 07:06:43;;;;;;;2.90;1.80;;;22.80;99.90;;;;;;4934493;28;20051;-35
2023/06/12 07:09:09;;;;;;;3.22;1.73;;;23.00;99.90;;;;;;4938105;28;20143;-36
2023/06/12 07:11:34;;;;;;;4.65;1.90;;;23.00;99.90;;;;;;4939828;28;20047;-36
2023/06/12 07:14:00;;;;;;;4.10;1.80;;;23.20;99.90;;;;;;4938104;28;20796;-36
2023/06/12 07:16:27;;;;;;;3.38;2.10;;;23.30;99.90;;;;;;4934726;28;20066;-36
2023/06/12 07:18:52;;;;;;;5.47;1.85;;;23.40;99.90;;;;;;4937898;28;20101;-36
2023/06/12 07:21:18;;;;;;;7.50;2.10;;;23.50;99.90;;;;;;4943173;28;20761;-36
2023/06/12 07:23:45;;;;;;;5.78;2.30;;;23.60;99.90;;;;;;4924008;28;20059;-36
2023/06/12 07:26:11;;;;;;;4.85;2.30;;;23.70;99.90;;;;;;4937975;28;20494;-36
2023/06/12 07:28:36;;;;;;;4.32;2.10;;;23.80;99.90;;;;;;4944036;28;20114;-36
2023/06/12 07:31:02;;;;;;;4.15;2.50;;;23.90;99.90;;;;;;4936127;28;20672;-36
2023/06/12 07:33:27;;;;;;;5.72;2.20;;;24.00;99.90;;;;;;4936428;28;20074;-36
2023/06/12 07:35:53;;;;;;;4.88;2.10;;;24.00;99.90;;;;;;4938982;28;20098;-35
2023/06/12 07:38:19;;;;;;;4.85;2.35;;;24.20;99.90;;;;;;4936729;28;20055;-36
2023/06/12 07:40:45;;;;;;;4.25;1.70;;;24.30;99.90;;;;;;4945623;28;20130;-36
2023/06/12 07:43:11;;;;;;;8.13;2.10;;;24.40;99.90;;;;;;4948160;28;20134;-35
2023/06/12 07:45:36;;;;;;;4.55;2.17;;;24.40;99.90;;;;;;4938696;28;20101;-35
2023/06/12 07:48:02;;;;;;;3.83;1.75;;;24.60;99.90;;;;;;4941363;28;20058;-35
2023/06/12 07:50:28;;;;;;;5.68;2.28;;;24.60;99.90;;;;;;4943437;28;20059;-36
2023/06/12 07:52:53;;;;;;;5.97;2.00;;;24.70;99.90;;;;;;4943309;28;20047;-35
2023/06/12 07:55:20;;;;;;;6.13;2.35;;;24.80;99.90;;;;;;4938941;28;20148;-35
2023/06/12 07:57:47;;;;;;;10.52;2.63;;;24.90;99.90;;;;;;4943382;28;20530;-35
2023/06/12 08:00:13;;;;;;;3.65;2.10;;;25.00;99.90;;;;;;4944097;28;20055;-35
2023/06/12 08:02:40;;;;;;;4.30;2.50;;;25.10;99.90;;;;;;4937285;28;20056;-35
2023/06/12 08:05:07;;;;;;;4.82;2.10;;;25.20;99.90;;;;;;4945445;28;20055;-36
2023/06/12 08:07:33;;;;;;;6.88;1.83;;;25.30;99.90;;;;;;4941067;28;20066;-35
2023/06/12 08:09:59;;;;;;;5.18;2.25;;;25.30;99.90;;;;;;4938334;28;20062;-35
2023/06/12 08:12:25;;;;;;;3.90;1.98;;;25.40;99.90;;;;;;4940943;28;20056;-35
2023/06/12 08:14:51;;;;;;;6.60;2.53;;;25.50;99.90;;;;;;4941969;28;20051;-35
2023/06/12 08:17:17;;;;;;;4.38;2.47;;;25.60;99.90;;;;;;4940534;28;20095;-35
2023/06/12 08:19:43;;;;;;;3.25;2.05;;;25.70;99.90;;;;;;4941027;28;20078;-34
2023/06/12 08:22:09;;;;;;;4.82;2.40;;;25.70;99.90;;;;;;4940711;28;20073;-34
2023/06/12 08:24:38;;;;;;;5.63;2.70;;;25.90;99.90;;;;;;4934459;28;20052;-35
2023/06/12 08:27:04;;;;;;;4.93;2.30;;;26.00;99.90;;;;;;4939005;28;20051;-35
2023/06/12 08:29:30;;;;;;;5.07;2.15;;;26.20;99.90;;;;;;4941486;28;20560;-34
2023/06/12 08:31:56;;;;;;;4.15;2.13;;;26.30;99.90;;;;;;4945780;28;20051;-34
2023/06/12 08:34:25;;;;;;;4.35;2.60;;;26.40;99.90;;;;;;4941190;28;20102;-34
2023/06/12 08:36:53;;;;;;;3.85;2.28;;;26.60;99.90;;;;;;4947715;28;20424;-34
2023/06/12 08:39:19;;;;;;;4.38;2.05;;;26.70;99.90;;;;;;4939818;28;20058;-35
2023/06/12 08:42:11;;;;;;;4.03;2.00;;;26.80;99.90;;;;;;4942548;28;20346;-35
2023/06/12 08:44:39;;;;;;;3.80;2.40;;;26.90;99.90;;;;;;4942192;28;20047;-35
2023/06/12 08:47:08;;;;;;;4.47;2.35;;;27.00;99.90;;;;;;4944683;28;20127;-35
2023/06/12 08:49:34;;;;;;;3.35;2.40;;;27.10;99.90;;;;;;4944836;28;20046;-35
2023/06/12 08:52:03;;;;;;;4.40;2.55;;;27.20;99.90;;;;;;4942833;28;20047;-35
2023/06/12 08:54:31;;;;;;;5.90;2.50;;;27.30;99.90;;;;;;4938981;28;20047;-35
2023/06/12 08:56:58;;;;;;;4.82;2.85;;;27.40;99.90;;;;;;4929579;29;20305;-35
2023/06/12 08:59:24;;;;;;;4.15;2.90;;;27.40;99.90;;;;;;4948323;28;20110;-35
2023/06/12 09:01:53;;;;;;;8.00;3.15;;;27.50;99.90;;;;;;4944039;28;20051;-35
2023/06/12 09:04:26;;;;;;;5.93;2.70;;;27.60;99.90;;;;;;4949689;28;20055;-35
2023/06/12 09:07:01;;;;;;;3.10;2.47;;;27.70;99.90;;;;;;4953343;28;20059;-35
2023/06/12 09:09:39;;;;;;;5.68;2.92;;;27.80;99.90;;;;;;4949234;28;20062;-35
2023/06/12 09:12:07;;;;;;;7.63;3.60;;;27.90;99.90;;;;;;4952627;28;20051;-35
2023/06/12 09:14:35;;;;;;;5.47;2.67;;;27.90;99.90;;;;;;4942362;28;20050;-34
2023/06/12 09:17:04;;;;;;;4.28;2.72;;;28.00;99.90;;;;;;4947437;28;20517;-35
2023/06/12 09:19:47;;;;;;;5.80;3.33;;;28.10;99.90;;;;;;4947266;28;20121;-35
2023/06/12 09:22:14;;;;;;;5.90;2.67;;;28.20;99.90;;;;;;4944626;28;20137;-35
2023/06/12 09:24:40;;;;;;;4.35;3.22;;;28.30;99.90;;;;;;4942899;28;20078;-35
2023/06/12 09:27:07;;;;;;;4.57;2.97;;;28.40;99.90;;;;;;4951993;28;20527;-34
2023/06/12 09:29:34;;;;;;;7.60;2.95;;;28.40;99.90;;;;;;4942829;28;20051;-34
2023/06/12 09:32:02;;;;;;;3.80;2.88;;;28.50;99.90;;;;;;4950315;28;20046;-34
2023/06/12 09:34:31;;;;;;;4.35;3.08;;;28.50;99.90;;;;;;4949518;28;20396;-41
2023/06/12 09:36:58;;;;;;;4.82;3.40;;;28.50;99.90;;;;;;4946587;28;20070;-34
2023/06/12 09:39:28;;;;;;;4.40;3.10;;;28.60;99.90;;;;;;4938914;28;20058;-34
2023/06/12 09:41:57;;;;;;;5.15;2.72;;;28.70;99.90;;;;;;4948255;28;20051;-35
2023/06/12 09:44:31;;;;;;;3.67;2.70;;;28.80;99.90;;;;;;4946572;28;20075;-34
2023/06/12 09:47:02;;;;;;;5.85;2.95;;;29.00;99.90;;;;;;4935677;28;20067;-34
2023/06/12 09:49:28;;;;;;;5.93;3.67;;;29.10;99.90;;;;;;4953963;28;20046;-34
2023/06/12 09:51:54;;;;;;;3.78;3.33;;;29.20;99.90;;;;;;4952286;28;20402;-34
2023/06/12 09:54:22;;;;;;;5.75;3.15;;;29.30;99.90;;;;;;4943878;28;20190;-34
2023/06/12 09:56:53;;;;;;;6.35;2.90;;;29.30;99.90;;;;;;4945053;28;20094;-34
2023/06/12 09:59:21;;;;;;;6.07;3.42;;;29.40;99.90;;;;;;4942537;28;20534;-34
2023/06/12 10:01:51;;;;;;;4.28;2.75;;;29.40;99.90;;;;;;4920728;28;20484;-34
2023/06/12 10:04:30;;;;;;;6.03;3.03;;;29.50;99.90;;;;;;4913390;29;20051;-34
2023/06/12 10:07:06;;;;;;;4.93;3.20;;;29.60;99.90;;;;;;4940104;28;20055;-34
2023/06/12 10:09:32;;;;;;;5.63;3.45;;;29.70;99.90;;;;;;4948180;28;20051;-34
2023/06/12 10:11:59;;;;;;;4.00;3.08;;;29.80;99.90;;;;;;4950684;28;20106;-34
2023/06/12 10:14:26;;;;;;;5.68;3.17;;;29.90;99.90;;;;;;4949269;28;20142;-34
2023/06/12 10:16:57;;;;;;;5.28;3.65;;;29.90;99.90;;;;;;4939825;28;20063;-34
2023/06/12 10:19:26;;;;;;;6.47;3.67;;;30.00;99.90;;;;;;4945824;28;20058;-34
2023/06/12 10:21:55;;;;;;;10.95;3.90;;;30.00;99.90;;;;;;4942783;28;20373;-34
2023/06/12 10:24:22;;;;;;;5.07;3.83;;;30.00;99.90;;;;;;4945522;28;20485;-34
2023/06/12 10:26:53;;;;;;;4.75;3.17;;;30.00;99.90;;;;;;4940705;28;20063;-35
2023/06/12 10:29:26;;;;;;;6.27;3.60;;;30.00;99.90;;;;;;4946669;28;20054;-34
2023/06/12 10:31:52;;;;;;;4.43;3.65;;;29.90;99.90;;;;;;4947915;28;20059;-34
2023/06/12 10:34:17;;;;;;;5.18;3.90;;;29.90;99.90;;;;;;4940383;28;20051;-35
2023/06/12 10:36:46;;;;;;;6.63;3.70;;;29.90;99.90;;;;;;4947436;28;20054;-34
2023/06/12 10:39:25;;;;;;;5.60;3.47;;;30.00;99.90;;;;;;4946064;28;20066;-35
2023/06/12 10:42:04;;;;;;;4.30;3.10;;;30.00;99.90;;;;;;4945289;28;20051;-34
2023/06/12 10:44:37;;;;;;;4.00;3.47;;;30.20;99.90;;;;;;4945386;28;20527;-35
2023/06/12 10:47:04;;;;;;;4.75;3.13;;;30.30;99.90;;;;;;4942764;28;20142;-35
2023/06/12 10:49:30;;;;;;;5.35;3.28;;;30.40;99.90;;;;;;4924712;28;20058;-35
2023/06/12 10:51:58;;;;;;;4.40;2.78;;;30.60;99.90;;;;;;4944208;28;20054;-35
2023/06/12 10:54:27;;;;;;;7.25;2.88;;;30.70;99.90;;;;;;4944098;28;20051;-35
2023/06/12 10:57:00;;;;;;;5.63;2.88;;;30.80;99.90;;;;;;4944376;28;20489;-35
2023/06/12 10:59:35;;;;;;;5.85;3.05;;;30.90;99.90;;;;;;4941427;28;20592;-35
2023/06/12 11:02:04;;;;;;;5.95;2.95;;;31.00;99.90;;;;;;4943587;28;20486;-35
2023/06/12 11:04:37;;;;;;;4.20;2.58;;;31.10;99.90;;;;;;4937566;28;20051;-42
2023/06/12 11:07:04;;;;;;;5.38;3.55;;;31.20;99.90;;;;;;4943052;28;20497;-35
2023/06/12 11:09:39;;;;;;;3.72;3.00;;;31.30;99.90;;;;;;4944562;28;20545;-35
2023/06/12 11:12:05;;;;;;;6.80;3.35;;;31.40;99.90;;;;;;4944086;28;20115;-35
2023/06/12 11:14:32;;;;;;;6.07;3.50;;;31.50;99.90;;;;;;4941276;28;20048;-34
2023/06/12 11:16:58;;;;;;;7.38;3.50;;;31.50;99.90;;;;;;4946932;28;20089;-44
2023/06/12 11:19:30;;;;;;;4.40;3.55;;;31.50;99.90;;;;;;4943079;28;20074;-35
2023/06/12 11:21:56;;;;;;;;;;;31.60;99.90;;;;;;4947213;28;20058;-35
2023/06/12 11:24:22;;;;;;;4.85;4.10;;;31.70;99.90;;;;;;4943467;28;19926;-35
2023/06/12 11:26:51;;;;;;;6.38;3.72;;;31.60;99.90;;;;;;4937623;28;20051;-35
2023/06/12 11:29:25;;;;;;;5.40;4.05;;;31.70;99.90;;;;;;4932397;28;20528;-35
2023/06/12 11:32:04;;;;;;;9.48;3.72;;;31.80;99.90;;;;;;4935962;28;20051;-34
2023/06/12 11:34:36;;;;;;;4.80;3.58;;;31.80;99.90;;;;;;4942108;28;20161;-34
2023/06/12 11:37:17;;;;;;;5.97;3.58;;;31.90;99.90;;;;;;4946298;28;20058;-34
2023/06/12 11:39:43;;;;;;;4.88;4.20;;;31.90;99.90;;;;;;4927970;28;20043;-34
2023/06/12 11:42:13;;;;;;;6.18;3.72;;;32.00;99.90;;;;;;4950290;28;20515;-44
2023/06/12 11:44:39;;;;;;;4.55;3.88;;;32.00;99.90;;;;;;4943985;28;20051;-34
2023/06/12 11:47:08;;;;;;;5.85;4.13;;;32.10;99.90;;;;;;4951167;28;20069;-35
2023/06/12 11:49:37;;;;;;;5.40;3.67;;;32.20;99.90;;;;;;4944682;28;20540;-36
2023/06/12 11:52:05;;;;;;;4.93;3.63;;;32.30;99.90;;;;;;4947317;28;20556;-35
2023/06/12 11:54:31;;;;;;;4.05;3.40;;;32.30;99.90;;;;;;4942339;28;20075;-35
2023/06/12 11:57:02;;;;;;;5.38;4.30;;;32.40;99.90;;;;;;4948769;28;20477;-35
2023/06/12 11:59:37;;;;;;;8.27;4.30;;;32.50;99.90;;;;;;4941351;28;20138;-35
2023/06/12 12:02:03;;;;;;;5.70;4.25;;;32.60;99.90;;;;;;4942992;28;20047;-35
2023/06/12 12:04:30;;;;;;;6.63;4.15;;;32.60;99.90;;;;;;4930670;28;20142;-35
2023/06/12 12:06:57;;;;;;;6.10;3.70;;;32.60;99.90;;;;;;4946264;28;20059;-35
2023/06/12 12:09:27;;;;;;;4.70;3.40;;;32.70;99.90;;;;;;4944826;28;20047;-36
2023/06/12 12:11:53;;;;;;;4.78;3.72;;;32.80;99.90;;;;;;4941484;28;21113;-35
2023/06/12 12:14:19;;;;;;;4.15;3.60;;;32.90;99.90;;;;;;4936868;28;20055;-35
2023/06/12 12:16:45;;;;;;;6.75;4.55;;;33.00;99.90;;;;;;4937021;28;20636;-35
2023/06/12 12:19:25;;;;;;;4.85;4.35;;;33.10;99.90;;;;;;4941767;28;20066;-35
2023/06/12 12:21:51;;;;;;;5.68;4.20;;;33.20;99.90;;;;;;4938206;28;20055;-35
2023/06/12 12:24:17;;;;;;;4.35;3.95;;;33.20;99.90;;;;;;4936455;28;20529;-35
2023/06/12 12:26:53;;;;;;;5.57;4.45;;;33.40;99.90;;;;;;4941194;28;20106;-36
2023/06/12 12:29:22;;;;;;;4.63;4.13;;;33.50;99.90;;;;;;4938230;28;20490;-35
2023/06/12 12:31:48;;;;;;;5.00;3.95;;;33.50;99.90;;;;;;4942952;28;20151;-35
2023/06/12 12:34:14;;;;;;;7.50;4.22;;;33.50;99.90;;;;;;4942225;28;20138;-35
2023/06/12 12:36:40;;;;;;;5.00;3.63;;;33.40;99.90;;;;;;4945597;28;20054;-35
2023/06/12 12:39:06;;;;;;;8.15;3.90;;;33.40;99.90;;;;;;4937539;28;20576;-35
2023/06/12 12:41:34;;;;;;;5.90;3.85;;;33.50;99.90;;;;;;4936330;28;20061;-35
2023/06/12 12:43:59;;;;;;;4.70;3.40;;;33.50;99.90;;;;;;4942654;28;20070;-35
2023/06/12 12:46:26;;;;;;;4.65;3.58;;;33.50;99.90;;;;;;4946366;28;20051;-35
2023/06/12 12:48:52;;;;;;;5.72;3.28;;;33.60;99.90;;;;;;4941035;28;20105;-35
2023/06/12 12:51:18;;;;;;;4.90;3.17;;;33.80;99.90;;;;;;4945566;28;20585;-35